Time;durP1;ratioP1;P1;durP2;ratioP2;P2;SDS_P1;SDS_P2;PMS_P1;PMS_P2;Temp;Humidity;BMP_temperature;BMP_pressure;BME280_temperature;BME280_humidity;BME280_pressure;Samples;Min_cycle;Max_cycle;Signal;HPM_P1;HPM_P2
2022/09/10 08:49:11;;;;;;;13.20;9.20;;;;;;;27.44;46.04;100848.94;5099053;27;20953;-61
2022/09/10 08:51:54;;;;;;;9.93;8.48;;;;;;;27.82;45.56;100847.38;5102709;28;20404;-61
2022/09/10 08:54:33;;;;;;;10.85;7.97;;;;;;;28.15;45.13;100836.00;5095243;28;20382;-60
2022/09/10 08:57:01;;;;;;;9.15;7.85;;;;;;;28.41;44.54;100837.41;5095462;28;20867;-60
2022/09/10 08:59:40;;;;;;;10.40;7.90;;;;;;;28.73;43.79;100843.38;5096456;28;20404;-60
2022/09/10 09:02:14;;;;;;;13.27;8.75;;;;;;;28.98;43.49;100839.56;5090063;28;20467;-61
2022/09/10 09:04:49;;;;;;;9.13;7.82;;;;;;;29.39;42.77;100838.25;5086958;28;20397;-61
2022/09/10 09:07:18;;;;;;;9.02;7.88;;;;;;;29.90;41.67;100830.16;5089757;28;20779;-61
2022/09/10 09:09:49;;;;;;;8.50;7.53;;;;;;;30.13;41.15;100835.00;5088812;28;20505;-60
2022/09/10 09:12:37;;;;;;;8.85;6.70;;;;;;;30.63;40.00;100819.66;5085073;28;20447;-61
2022/09/10 09:15:09;;;;;;;12.40;8.00;;;;;;;30.93;39.09;100816.63;5089242;28;20385;-61
2022/09/10 09:17:37;;;;;;;8.23;7.53;;;;;;;30.93;38.99;100816.63;5087206;28;20402;-60
2022/09/10 09:22:51;;;;;;;10.00;6.53;;;;;;;30.94;38.86;100819.06;5056012;27;20463;-61
2022/09/10 09:25:32;;;;;;;10.95;6.68;;;;;;;31.11;38.33;100818.44;5030950;28;20549;-60
2022/09/10 09:30:48;;;;;;;10.32;6.50;;;;;;;31.25;37.89;100816.47;5029241;28;20856;-60
2022/09/10 09:33:18;;;;;;;12.75;7.47;;;;;;;31.16;38.05;100810.13;5031382;28;22350;-61
2022/09/10 09:35:51;;;;;;;9.38;6.30;;;;;;;31.03;38.42;100802.75;5038292;28;20409;-60
2022/09/10 09:38:27;;;;;;;9.10;6.10;;;;;;;30.94;38.06;100802.66;5041947;28;20401;-61
2022/09/10 09:40:57;;;;;;;10.75;6.40;;;;;;;30.93;38.13;100803.75;5045282;28;20406;-61
2022/09/10 09:43:28;;;;;;;9.83;6.27;;;;;;;30.94;38.17;100796.38;5035369;28;20382;-60
2022/09/10 09:45:54;;;;;;;7.53;6.40;;;;;;;30.96;38.24;100796.88;5031996;28;20396;-60
2022/09/10 09:48:21;;;;;;;8.07;6.00;;;;;;;31.07;37.91;100784.56;5034760;28;20427;-60
2022/09/10 09:50:55;;;;;;;9.55;5.85;;;;;;;31.24;37.81;100795.72;5042291;28;20408;-60
2022/09/10 09:53:26;;;;;;;7.97;5.82;;;;;;;31.17;37.75;100795.31;5035259;28;20750;-60
2022/09/10 09:55:55;;;;;;;11.80;6.60;;;;;;;31.00;38.10;100798.66;5040695;28;20396;-61
2022/09/10 09:58:20;;;;;;;9.15;6.32;;;;;;;30.84;38.52;100805.53;5034925;28;20380;-60
2022/09/10 10:00:48;;;;;;;8.73;6.00;;;;;;;30.66;38.58;100793.59;5038524;28;20421;-61
2022/09/10 10:03:18;;;;;;;9.18;6.00;;;;;;;30.58;38.89;100794.31;5031631;28;20735;-61
2022/09/10 10:05:43;;;;;;;7.70;5.63;;;;;;;30.49;39.08;100791.47;5034190;28;20375;-61
2022/09/10 10:08:40;;;;;;;11.13;6.18;;;;;;;30.49;39.28;100789.53;5025707;28;20500;-60
2022/09/10 10:11:06;;;;;;;11.95;7.07;;;;;;;30.45;39.47;100787.69;5039276;28;20835;-60
2022/09/10 10:13:41;;;;;;;10.00;6.90;;;;;;;30.39;39.85;100791.63;5025470;28;20479;-61
2022/09/10 10:16:17;;;;;;;10.93;6.60;;;;;;;30.31;39.75;100785.72;5025801;28;20386;-61
2022/09/10 10:18:44;;;;;;;8.40;7.00;;;;;;;30.19;40.18;100784.59;5025685;28;20924;-60
2022/09/10 10:21:21;;;;;;;10.55;6.68;;;;;;;30.18;40.30;100782.94;5025321;28;20424;-60
2022/09/10 10:23:47;;;;;;;10.10;6.57;;;;;;;30.15;40.55;100786.31;5025126;28;20809;-60
2022/09/10 10:26:21;;;;;;;9.38;6.93;;;;;;;30.12;40.63;100782.22;5042233;28;21259;-61
2022/09/10 10:28:55;;;;;;;9.48;6.75;;;;;;;30.11;40.97;100773.22;5045309;28;20421;-60
2022/09/10 10:31:22;;;;;;;9.70;6.50;;;;;;;30.24;40.96;100781.78;5044705;28;20899;-60
2022/09/10 10:33:58;;;;;;;9.75;6.68;;;;;;;30.31;40.72;100771.25;5023275;28;20384;-61
2022/09/10 10:36:44;;;;;;;11.10;6.50;;;;;;;30.36;40.81;100770.34;5025559;28;20386;-60
2022/09/10 10:39:25;;;;;;;6.40;5.78;;;;;;;30.32;40.71;100767.38;5023208;28;20387;-61
2022/09/10 10:42:07;;;;;;;8.97;6.13;;;;;;;30.28;41.23;100760.91;5031651;28;20417;-61
2022/09/10 10:44:51;;;;;;;8.98;5.65;;;;;;;29.86;41.81;100760.81;5019874;28;20448;-61
2022/09/10 10:47:38;;;;;;;6.70;5.10;;;;;;;29.54;42.51;100751.44;5029267;28;20393;-60
2022/09/10 10:50:12;;;;;;;11.73;6.28;;;;;;;29.44;43.05;100753.53;5022826;28;20378;-60
2022/09/10 10:52:53;;;;;;;9.13;6.30;;;;;;;29.41;43.33;100748.66;5013159;28;20392;-60
2022/09/10 10:55:34;;;;;;;9.95;5.70;;;;;;;29.37;43.75;100764.84;5023841;28;20421;-60
2022/09/10 10:58:21;;;;;;;11.43;6.00;;;;;;;29.22;44.63;100784.16;5027038;28;20384;-60
2022/09/10 11:00:57;;;;;;;10.85;6.25;;;;;;;29.06;45.55;100784.31;5024335;28;20406;-61
2022/09/10 11:04:04;;;;;;;8.05;6.00;;;;;;;28.87;46.18;100787.00;5012552;28;20459;-61
2022/09/10 11:06:37;;;;;;;10.45;6.35;;;;;;;28.87;46.76;100778.81;5014575;28;20409;-60
2022/09/10 11:09:23;;;;;;;11.02;6.47;;;;;;;28.85;47.17;100796.59;5031304;28;20387;-60
2022/09/10 11:13:13;;;;;;;11.07;6.45;;;;;;;28.67;47.12;100790.00;5049740;28;20409;-60
2022/09/10 11:15:54;;;;;;;11.90;6.90;;;;;;;28.58;47.40;100793.34;5015748;28;21014;-61
2022/09/10 11:18:27;;;;;;;10.60;6.85;;;;;;;28.62;47.46;100792.78;5025638;28;20441;-61
2022/09/10 11:20:55;;;;;;;11.52;7.18;;;;;;;28.54;47.84;100805.09;5025848;28;20900;-60
2022/09/10 11:23:48;;;;;;;15.70;7.75;;;;;;;28.35;49.62;100810.47;5025548;28;20383;-60
2022/09/10 11:26:20;;;;;;;19.52;9.05;;;;;;;28.26;51.13;100804.81;5027102;28;20390;-60
2022/09/10 11:28:58;;;;;;;18.02;8.88;;;;;;;27.99;52.87;100800.66;5027364;28;20387;-58
2022/09/10 11:31:32;;;;;;;18.20;9.35;;;;;;;27.74;53.79;100790.75;5024676;28;20463;-58
2022/09/10 11:34:17;;;;;;;18.10;9.90;;;;;;;27.66;54.68;100796.81;5025144;28;20900;-58
2022/09/10 11:36:53;;;;;;;17.75;9.77;;;;;;;27.56;55.13;100796.88;5025853;28;20885;-58
2022/09/10 11:39:36;;;;;;;17.48;9.85;;;;;;;27.45;55.06;100793.41;5025835;28;20449;-59
2022/09/10 11:42:14;;;;;;;18.35;10.30;;;;;;;27.39;55.29;100806.22;5025064;28;20422;-58
2022/09/10 11:45:30;;;;;;;15.32;10.35;;;;;;;27.25;55.58;100795.09;5025554;28;20445;-58
2022/09/10 11:48:09;;;;;;;14.50;9.25;;;;;;;27.16;54.52;100794.06;5032744;28;20449;-58
2022/09/10 11:51:48;;;;;;;18.63;9.90;;;;;;;26.98;55.04;100781.91;5091821;27;20398;-59
2022/09/10 11:54:22;;;;;;;15.93;10.70;;;;;;;26.94;55.75;100782.72;5087730;28;20694;-59
2022/09/10 11:56:59;;;;;;;16.98;11.75;;;;;;;26.89;56.32;100781.66;5081704;28;20446;-59
2022/09/10 11:59:57;;;;;;;15.48;11.93;;;;;;;26.95;57.47;100792.53;5070972;28;20380;-58
2022/09/10 12:02:44;;;;;;;15.83;11.30;;;;;;;26.95;56.71;100800.69;5086242;28;20378;-59
2022/09/10 12:05:09;;;;;;;14.07;11.55;;;;;;;26.91;56.17;100797.69;5085787;28;20389;-59
2022/09/10 12:07:35;;;;;;;14.75;10.82;;;;;;;26.70;56.29;100792.34;5075800;28;20380;-59
2022/09/10 12:10:38;;;;;;;15.37;11.40;;;;;;;26.63;55.97;100788.25;5080704;28;20432;-58
2022/09/10 12:13:08;;;;;;;15.43;11.02;;;;;;;26.59;55.88;100787.16;5079041;28;20386;-58
2022/09/10 12:15:35;;;;;;;15.15;11.25;;;;;;;26.54;55.95;100776.28;5085451;28;20875;-59
2022/09/10 12:18:16;;;;;;;12.73;10.32;;;;;;;26.50;56.34;100774.13;5080324;28;20404;-58
2022/09/10 12:21:04;;;;;;;11.43;10.20;;;;;;;26.44;56.40;100766.28;5076980;28;20381;-59
2022/09/10 12:23:35;;;;;;;13.25;10.93;;;;;;;26.50;57.72;100763.25;5075801;28;20827;-59
2022/09/10 12:26:18;;;;;;;16.30;11.48;;;;;;;26.68;57.79;100766.50;5082938;28;20378;-58
2022/09/10 12:28:46;;;;;;;14.53;10.80;;;;;;;26.79;57.29;100761.84;5065644;28;20381;-59
2022/09/10 12:31:16;;;;;;;11.25;10.15;;;;;;;26.82;57.12;100755.84;5082414;28;20406;-59
2022/09/10 12:33:45;;;;;;;12.30;9.93;;;;;;;26.85;56.69;100749.88;5085188;28;20387;-59
2022/09/10 12:39:04;;;;;;;13.52;9.80;;;;;;;26.84;56.29;100740.06;5056225;28;20459;-59
2022/09/10 12:41:30;;;;;;;13.43;10.00;;;;;;;26.85;56.68;100726.19;5045422;28;20402;-63
2022/09/10 12:43:57;;;;;;;11.68;8.98;;;;;;;26.95;56.53;100727.22;5036067;28;20391;-59
2022/09/10 12:46:24;;;;;;;15.13;9.10;;;;;;;27.08;56.28;100721.16;5042181;28;20745;-58
2022/09/10 12:48:53;;;;;;;10.02;8.65;;;;;;;27.16;56.07;100725.22;5045556;28;20424;-59
2022/09/10 12:51:18;;;;;;;9.98;8.93;;;;;;;27.17;55.92;100718.69;5030652;28;20461;-59
2022/09/10 12:54:08;;;;;;;12.50;8.40;;;;;;;27.13;56.26;100712.19;5026099;28;20422;-59
2022/09/10 12:57:14;;;;;;;12.68;8.40;;;;;;;27.24;55.30;100713.72;5027082;28;20441;-60
2022/09/10 12:59:43;;;;;;;9.80;7.53;;;;;;;27.35;54.63;100703.63;5041246;28;20393;-59
2022/09/10 13:02:31;;;;;;;10.77;7.85;;;;;;;27.39;54.19;100696.53;5035888;28;20883;-59
2022/09/10 13:05:22;;;;;;;10.82;7.95;;;;;;;27.40;53.89;100684.53;5045303;28;20894;-58
2022/09/10 13:07:58;;;;;;;11.98;7.85;;;;;;;27.43;53.86;100687.50;5044156;28;20883;-59
2022/09/10 13:10:27;;;;;;;9.50;7.40;;;;;;;27.37;53.27;100702.25;5045079;28;20810;-59
2022/09/10 13:13:03;;;;;;;8.82;7.63;;;;;;;27.24;53.98;100697.41;5044505;28;20382;-59
2022/09/10 13:15:34;;;;;;;10.48;8.20;;;;;;;27.16;54.33;100698.00;5024907;28;20402;-59
2022/09/10 13:18:00;;;;;;;10.63;7.72;;;;;;;27.24;54.20;100697.41;5025312;28;20419;-58
2022/09/10 13:20:25;;;;;;;9.85;8.05;;;;;;;27.33;54.02;100701.19;5025292;28;20969;-58
2022/09/10 13:23:10;;;;;;;10.03;8.17;;;;;;;27.39;53.96;100689.19;5028246;28;20488;-59
2022/09/10 13:25:46;;;;;;;12.25;7.78;;;;;;;27.41;53.82;100681.53;5051720;28;20409;-59
2022/09/10 13:28:30;;;;;;;11.25;7.80;;;;;;;27.49;53.75;100699.16;5045233;28;20413;-59
2022/09/10 13:31:07;;;;;;;11.07;7.60;;;;;;;27.56;53.27;100694.22;5045963;28;20425;-60
2022/09/10 13:33:49;;;;;;;11.43;7.90;;;;;;;27.58;53.11;100672.94;5029356;28;20392;-59
2022/09/10 13:36:47;;;;;;;9.98;7.95;;;;;;;27.69;53.13;100667.41;5025240;28;20383;-57
2022/09/10 13:39:37;;;;;;;10.00;7.80;;;;;;;27.80;53.21;100682.56;5019849;28;20389;-59
2022/09/10 13:42:41;;;;;;;10.15;7.95;;;;;;;27.87;52.98;100671.34;5043336;28;20431;-59
2022/09/10 13:45:31;;;;;;;10.73;7.65;;;;;;;27.90;52.84;100666.16;5039039;28;20544;-59
2022/09/10 13:50:25;;;;;;;8.73;7.50;;;;;;;27.89;52.77;100666.41;5078119;27;20457;-58
2022/09/10 13:52:58;;;;;;;11.73;7.03;;;;;;;28.01;52.36;100669.59;5052702;28;20820;-59
2022/09/10 13:55:29;;;;;;;10.23;6.78;;;;;;;28.08;52.14;100659.16;5064975;28;20754;-58
2022/09/10 13:58:17;;;;;;;9.73;6.63;;;;;;;28.12;51.12;100657.47;5064964;28;20442;-59
2022/09/10 14:00:57;;;;;;;8.93;5.57;;;;;;;28.15;50.43;100662.38;5065386;28;20478;-59
2022/09/10 14:03:34;;;;;;;9.88;5.60;;;;;;;28.11;49.95;100660.50;5064327;28;20472;-59
2022/09/10 14:06:07;;;;;;;10.85;6.72;;;;;;;28.20;50.66;100662.31;5065484;28;20459;-59
2022/09/10 14:11:11;;;;;;;10.50;6.70;;;;;;;28.28;50.60;100636.31;5045405;28;20926;-59
2022/09/10 14:14:09;;;;;;;9.43;5.93;;;;;;;28.27;49.45;100625.69;5045973;28;20398;-58
2022/09/10 14:16:47;;;;;;;9.05;5.75;;;;;;;28.21;49.55;100641.31;5044948;28;21133;-59
2022/09/10 14:19:15;;;;;;;10.32;7.15;;;;;;;28.20;48.97;100647.88;5044934;28;20440;-59
2022/09/10 14:21:42;;;;;;;11.43;6.20;;;;;;;28.16;49.22;100655.00;5045136;28;20772;-60
2022/09/10 14:24:36;;;;;;;12.63;7.03;;;;;;;28.02;50.04;100663.88;5044452;28;20393;-59
2022/09/10 14:27:14;;;;;;;9.25;6.50;;;;;;;28.00;49.98;100665.22;5044817;28;20397;-59
2022/09/10 14:29:41;;;;;;;11.27;6.20;;;;;;;27.91;50.44;100672.41;5043191;28;20428;-59
2022/09/10 14:32:36;;;;;;;9.43;6.50;;;;;;;27.88;50.46;100672.97;5044196;28;20479;-58
2022/09/10 14:35:36;;;;;;;8.50;6.70;;;;;;;27.86;50.78;100670.53;5035695;28;20412;-59
2022/09/10 14:38:19;;;;;;;9.05;6.50;;;;;;;27.84;50.56;100662.66;5043996;28;20393;-59
2022/09/10 14:40:46;;;;;;;9.75;7.10;;;;;;;27.79;50.75;100667.34;5044752;28;20374;-58
2022/09/10 14:43:33;;;;;;;11.20;7.35;;;;;;;27.79;51.48;100683.69;5045308;28;20405;-59
2022/09/10 14:46:03;;;;;;;10.10;7.27;;;;;;;27.78;51.76;100684.75;5036743;28;20393;-59
2022/09/10 14:48:37;;;;;;;14.35;8.05;;;;;;;27.78;52.10;100691.03;5045328;28;20410;-59
2022/09/10 14:51:21;;;;;;;9.05;8.00;;;;;;;27.75;53.27;100705.22;5044633;28;20482;-59
2022/09/10 14:53:52;;;;;;;12.07;8.38;;;;;;;27.70;54.06;100716.16;5025266;28;20399;-59
2022/09/10 14:56:29;;;;;;;11.82;7.82;;;;;;;27.62;54.34;100709.44;5041757;28;21141;-59
2022/09/10 14:59:13;;;;;;;10.30;8.10;;;;;;;27.59;54.31;100712.72;5043942;28;20440;-58
2022/09/10 15:01:44;;;;;;;12.40;8.13;;;;;;;27.58;54.71;100718.44;5042894;28;20393;-59
2022/09/10 15:04:28;;;;;;;11.52;8.48;;;;;;;27.55;55.30;100717.09;5043087;28;20472;-58
2022/09/10 15:06:58;;;;;;;11.13;9.10;;;;;;;27.45;55.29;100696.19;5043560;28;20386;-59
2022/09/10 15:09:28;;;;;;;16.92;10.80;;;;;;;27.44;55.88;100693.75;5028201;28;20431;-59
2022/09/10 15:11:57;;;;;;;14.63;10.82;;;;;;;27.43;56.24;100692.16;5026410;28;20927;-59
2022/09/10 15:14:24;;;;;;;13.15;10.40;;;;;;;27.43;56.58;100690.22;5023538;28;20400;-59
2022/09/10 15:16:51;;;;;;;12.07;9.43;;;;;;;27.37;55.97;100685.94;5023317;28;20940;-59
2022/09/10 15:19:21;;;;;;;12.20;9.55;;;;;;;27.40;55.90;100693.50;5024844;28;20411;-59
2022/09/10 15:21:47;;;;;;;12.52;8.90;;;;;;;27.36;55.35;100676.13;5017231;28;20743;-60
2022/09/10 15:24:15;;;;;;;14.25;9.90;;;;;;;27.36;55.85;100654.34;5009497;28;20471;-59
2022/09/10 15:26:42;;;;;;;14.82;9.55;;;;;;;27.34;55.65;100628.53;5009855;28;20382;-59
2022/09/10 15:29:08;;;;;;;13.20;9.80;;;;;;;27.27;55.62;100609.78;5010146;28;20498;-59
2022/09/10 15:31:35;;;;;;;12.63;9.50;;;;;;;27.16;55.89;100622.63;5014148;28;20405;-59
2022/09/10 15:34:01;;;;;;;11.33;9.20;;;;;;;27.18;56.06;100642.19;5009236;28;20388;-58
2022/09/10 15:36:27;;;;;;;12.50;9.65;;;;;;;27.22;56.62;100656.84;5009419;28;20384;-59
2022/09/10 15:38:54;;;;;;;11.97;9.60;;;;;;;27.22;56.63;100670.47;5010021;28;20750;-58
2022/09/10 15:41:20;;;;;;;11.32;9.32;;;;;;;27.25;56.41;100682.72;5010576;28;20392;-58
2022/09/10 15:43:46;;;;;;;11.82;10.15;;;;;;;27.16;57.08;100687.94;5011992;28;20388;-58
2022/09/10 15:46:15;;;;;;;15.88;8.80;;;;;;;26.94;56.50;100682.91;5010877;28;20483;-58
2022/09/10 15:48:41;;;;;;;9.85;7.88;;;;;;;26.78;55.63;100695.75;5012573;28;20894;-58
2022/09/10 15:51:12;;;;;;;12.32;7.95;;;;;;;26.65;55.01;100689.03;5011236;28;20406;-59
2022/09/10 15:53:38;;;;;;;10.63;7.72;;;;;;;26.52;54.14;100704.00;5011497;28;20388;-58
2022/09/10 15:56:06;;;;;;;11.47;7.97;;;;;;;26.36;54.27;100694.25;5012049;28;20384;-58
2022/09/10 15:58:32;;;;;;;11.55;7.80;;;;;;;26.26;54.71;100705.16;5011466;28;20967;-59
2022/09/10 16:01:10;;;;;;;10.93;7.53;;;;;;;26.17;55.05;100709.53;5010263;28;20376;-59
2022/09/10 16:05:20;;;;;;;12.88;7.53;;;;;;;26.05;54.57;100704.38;5029690;28;20742;-58
2022/09/10 16:07:48;;;;;;;10.57;7.47;;;;;;;25.96;54.55;100706.81;5024075;28;20421;-58
2022/09/10 16:10:14;;;;;;;12.60;8.03;;;;;;;25.89;54.63;100709.81;5023302;28;20379;-59
2022/09/10 16:12:40;;;;;;;11.50;8.30;;;;;;;25.87;54.57;100711.94;5022905;28;20379;-58
2022/09/10 16:15:06;;;;;;;11.05;8.00;;;;;;;25.78;54.37;100716.31;5021893;28;20398;-58
2022/09/10 16:17:32;;;;;;;13.05;8.25;;;;;;;25.74;54.54;100713.31;5024570;28;20379;-58
2022/09/10 16:19:58;;;;;;;10.43;8.40;;;;;;;25.68;54.62;100713.59;5023364;28;20398;-58
2022/09/10 16:22:25;;;;;;;9.88;7.68;;;;;;;25.59;54.77;100707.91;5022976;28;20388;-58
2022/09/10 16:24:50;;;;;;;12.60;8.05;;;;;;;25.59;54.98;100713.34;5020984;28;20912;-58
2022/09/10 16:27:16;;;;;;;12.67;7.80;;;;;;;25.51;54.91;100711.94;5022622;28;20446;-58
2022/09/10 16:29:42;;;;;;;11.70;7.50;;;;;;;25.48;54.90;100720.66;5020068;28;20442;-59
2022/09/10 16:32:09;;;;;;;11.23;7.80;;;;;;;25.45;55.16;100731.22;5020694;28;20876;-58
2022/09/10 16:34:35;;;;;;;11.05;7.22;;;;;;;25.43;55.14;100739.63;5022743;28;20384;-58
2022/09/10 16:37:02;;;;;;;8.45;6.82;;;;;;;25.31;55.09;100720.88;5020612;28;20510;-58
2022/09/10 16:39:28;;;;;;;7.83;6.17;;;;;;;25.26;55.06;100730.91;5022312;28;20379;-58
2022/09/10 16:41:54;;;;;;;11.43;6.75;;;;;;;25.20;55.30;100735.47;5021905;28;20394;-58
2022/09/10 16:44:21;;;;;;;8.55;6.53;;;;;;;25.18;55.43;100721.38;5022167;28;20472;-58
2022/09/10 16:46:46;;;;;;;9.17;7.20;;;;;;;25.17;55.58;100720.56;5021240;28;20486;-59
2022/09/10 16:49:12;;;;;;;10.43;7.60;;;;;;;25.17;55.67;100717.00;5022372;28;20490;-59
2022/09/10 16:51:40;;;;;;;9.88;7.78;;;;;;;25.13;56.00;100724.88;5021133;28;20419;-58
2022/09/10 16:54:06;;;;;;;11.88;8.90;;;;;;;25.07;56.55;100720.53;5021478;28;20399;-59
2022/09/10 16:56:43;;;;;;;15.25;9.20;;;;;;;25.02;56.73;100728.66;5020011;28;20385;-58
2022/09/10 16:59:16;;;;;;;15.10;10.77;;;;;;;24.97;56.95;100729.47;5020175;28;20387;-58
2022/09/10 17:01:43;;;;;;;15.43;11.70;;;;;;;24.96;57.20;100725.09;5022387;28;20445;-58
2022/09/10 17:04:13;;;;;;;14.02;10.32;;;;;;;24.94;57.40;100734.59;5022182;28;20425;-58
2022/09/10 17:06:38;;;;;;;12.68;10.15;;;;;;;24.88;57.56;100733.72;5023209;28;20386;-58
2022/09/10 17:09:04;;;;;;;11.97;9.00;;;;;;;24.85;57.85;100734.28;5020886;28;20380;-58
2022/09/10 17:11:33;;;;;;;13.13;8.25;;;;;;;24.79;57.93;100743.47;5021595;28;20422;-58
2022/09/10 17:14:02;;;;;;;13.52;8.18;;;;;;;24.78;57.86;100750.78;5021249;28;20927;-58
2022/09/10 17:16:31;;;;;;;12.15;8.13;;;;;;;24.77;57.97;100754.56;5009805;28;20920;-58
2022/09/10 17:23:35;;;;;;;12.00;8.10;;;;;;;24.66;58.70;100773.78;5031072;28;20401;-58
2022/09/10 17:26:05;;;;;;;10.93;8.40;;;;;;;24.58;58.70;100777.81;5024937;28;20403;-58
2022/09/10 17:28:31;;;;;;;10.82;8.07;;;;;;;24.53;58.61;100791.31;5025287;28;20380;-58
2022/09/10 17:30:58;;;;;;;11.15;8.32;;;;;;;24.45;58.91;100795.28;5024058;28;20387;-58
2022/09/10 17:33:24;;;;;;;10.90;8.20;;;;;;;24.36;58.73;100783.28;5021869;28;20415;-58
2022/09/10 17:35:59;;;;;;;12.85;8.60;;;;;;;24.39;58.74;100797.13;5025547;28;20452;-58
2022/09/10 17:38:25;;;;;;;11.50;8.50;;;;;;;24.38;58.72;100800.09;5025397;28;20399;-59
2022/09/10 17:40:56;;;;;;;11.57;8.85;;;;;;;24.36;58.86;100810.38;5025065;28;20395;-58
2022/09/10 17:43:24;;;;;;;10.80;9.05;;;;;;;24.35;58.68;100806.88;5023783;28;20498;-58
2022/09/10 17:45:50;;;;;;;12.32;9.25;;;;;;;24.34;58.70;100799.81;5024766;28;20917;-57
2022/09/10 17:48:15;;;;;;;14.37;9.60;;;;;;;24.32;58.76;100798.44;5023309;28;20391;-58
2022/09/10 17:51:32;;;;;;;23.05;15.88;;;;;;;24.30;58.85;100804.13;5054454;27;20473;-58
2022/09/10 17:53:58;;;;;;;39.88;26.55;;;;;;;24.33;58.80;100816.34;5057600;28;20913;-59
2022/09/10 17:56:25;;;;;;;31.40;21.40;;;;;;;24.30;58.90;100817.66;5063904;28;20380;-58
2022/09/10 18:00:57;;;;;;;29.63;20.80;;;;;;;24.25;59.05;100814.91;5084231;27;20404;-58
2022/09/10 18:03:22;;;;;;;23.52;13.52;;;;;;;24.24;58.99;100834.97;5065564;28;20407;-58
2022/09/10 18:05:48;;;;;;;17.27;12.20;;;;;;;24.24;58.94;100835.78;5065808;28;20387;-59
2022/09/10 18:08:14;;;;;;;16.15;11.93;;;;;;;24.23;59.16;100850.38;5065593;28;20403;-59
2022/09/10 18:10:39;;;;;;;29.63;19.27;;;;;;;24.22;59.17;100832.50;5065458;28;20415;-58
2022/09/10 18:13:08;;;;;;;23.23;16.30;;;;;;;24.22;59.14;100837.94;5065608;28;20466;-58
2022/09/10 18:15:45;;;;;;;16.60;11.93;;;;;;;24.20;59.45;100837.38;5061863;28;20427;-58
2022/09/10 18:20:11;;;;;;;20.27;14.30;;;;;;;24.16;59.48;100844.34;5079152;27;20412;-58
2022/09/10 18:22:37;;;;;;;16.53;11.13;;;;;;;24.19;59.10;100841.16;5064443;28;20461;-59
2022/09/10 18:25:03;;;;;;;13.73;10.13;;;;;;;24.20;58.89;100840.09;5065638;28;20914;-58
2022/09/10 18:27:29;;;;;;;11.68;8.68;;;;;;;24.23;58.39;100839.53;5065311;28;20396;-58
2022/09/10 18:29:55;;;;;;;11.60;8.90;;;;;;;24.25;57.87;100839.28;5064731;28;20376;-58
2022/09/10 18:32:20;;;;;;;10.40;7.90;;;;;;;24.22;57.71;100829.00;5055280;28;20400;-58
2022/09/10 18:34:46;;;;;;;10.25;7.22;;;;;;;24.24;57.22;100840.38;5065698;28;20766;-59
2022/09/10 18:37:12;;;;;;;8.05;7.00;;;;;;;24.25;57.07;100839.28;5065762;28;20380;-59
2022/09/10 18:42:02;;;;;;;9.32;7.25;;;;;;;24.26;56.80;100832.81;5080069;27;20412;-58
2022/09/10 18:44:32;;;;;;;8.48;6.53;;;;;;;24.26;56.52;100834.72;5065100;28;20973;-59
2022/09/10 18:46:58;;;;;;;9.43;6.87;;;;;;;24.24;56.51;100824.94;5062182;28;20390;-58
2022/09/10 18:49:24;;;;;;;8.77;7.43;;;;;;;24.24;56.39;100826.84;5062690;28;20415;-58
2022/09/10 18:51:51;;;;;;;9.23;6.97;;;;;;;24.23;56.40;100822.47;5061609;28;20457;-58
2022/09/10 18:56:32;;;;;;;10.68;6.72;;;;;;;24.22;56.57;100820.88;5069070;27;20420;-59
2022/09/10 18:59:01;;;;;;;10.77;7.28;;;;;;;24.23;56.50;100823.28;5061995;28;20407;-58
2022/09/10 19:01:29;;;;;;;13.25;7.07;;;;;;;24.27;56.50;100834.44;5062487;28;20765;-58
2022/09/10 19:05:48;;;;;;;10.80;7.90;;;;;;;24.19;57.11;100843.03;5070870;27;20466;-58
2022/09/10 19:10:28;;;;;;;11.10;9.60;;;;;;;24.16;57.35;100844.34;5030350;28;20415;-58
2022/09/10 19:14:58;;;;;;;12.30;10.13;;;;;;;24.14;57.46;100856.53;5069133;27;20906;-58
2022/09/10 19:17:23;;;;;;;14.30;8.70;;;;;;;24.12;57.76;100858.69;5061400;28;20399;-59
2022/09/10 19:19:49;;;;;;;10.93;8.20;;;;;;;24.13;57.53;100852.19;5058625;28;20376;-58
2022/09/10 19:22:16;;;;;;;10.90;8.32;;;;;;;24.16;57.33;100849.78;5050398;28;20389;-58
2022/09/10 19:24:42;;;;;;;11.07;7.90;;;;;;;24.19;57.11;100851.19;5063595;28;20467;-59
2022/09/10 19:27:07;;;;;;;9.85;7.32;;;;;;;24.19;56.89;100853.88;5056131;28;20467;-58
2022/09/10 19:32:05;;;;;;;10.07;6.80;;;;;;;24.21;56.42;100857.97;5028565;28;21224;-58
2022/09/10 19:34:31;;;;;;;9.18;7.30;;;;;;;24.21;56.21;100854.44;5009820;28;20504;-58
2022/09/10 19:36:56;;;;;;;10.80;6.93;;;;;;;24.22;55.98;100856.88;5013229;28;20392;-58
2022/09/10 19:39:21;;;;;;;10.10;7.20;;;;;;;24.21;55.98;100855.25;5010420;28;20381;-58
2022/09/10 19:41:49;;;;;;;10.50;6.93;;;;;;;24.24;56.01;100862.06;5012934;28;20496;-58
2022/09/10 19:44:15;;;;;;;9.13;5.60;;;;;;;24.23;55.64;100863.13;5013522;28;20396;-58
2022/09/10 19:48:54;;;;;;;9.02;4.95;;;;;;;24.26;54.90;100857.19;5029903;28;20930;-59
2022/09/10 19:51:20;;;;;;;7.32;4.85;;;;;;;24.28;54.87;100855.03;5021857;28;20396;-58
2022/09/10 19:53:48;;;;;;;6.65;4.55;;;;;;;24.29;54.55;100866.69;5020830;28;20456;-59
2022/09/10 19:56:17;;;;;;;7.13;4.90;;;;;;;24.31;54.23;100867.25;5021874;28;20399;-58
2022/09/10 19:58:44;;;;;;;7.53;4.18;;;;;;;24.30;53.84;100860.19;5022084;28;20393;-59
2022/09/10 20:01:12;;;;;;;5.57;4.35;;;;;;;24.27;53.88;100858.81;5022411;28;20419;-58
2022/09/10 20:03:39;;;;;;;7.25;4.50;;;;;;;24.31;53.70;100857.25;5023056;28;21467;-58
2022/09/10 20:06:06;;;;;;;6.55;4.47;;;;;;;24.31;53.49;100854.53;5020321;28;20451;-58
2022/09/10 20:08:32;;;;;;;8.43;4.53;;;;;;;24.33;53.28;100855.09;5021397;28;20456;-58
2022/09/10 20:10:59;;;;;;;7.15;3.67;;;;;;;24.31;53.09;100846.41;5021566;28;20476;-58
2022/09/10 20:13:25;;;;;;;5.90;3.70;;;;;;;24.31;53.40;100845.56;5019495;28;20434;-58
2022/09/10 20:15:51;;;;;;;6.63;3.67;;;;;;;24.31;53.15;100842.84;5018116;28;20384;-58
2022/09/10 20:18:16;;;;;;;8.43;3.97;;;;;;;24.31;53.19;100841.00;5023078;28;20951;-58
2022/09/10 20:20:42;;;;;;;6.90;4.13;;;;;;;24.33;53.41;100848.84;5021073;28;20975;-58
2022/09/10 20:27:53;;;;;;;6.93;4.10;;;;;;;24.29;53.57;100834.19;5032286;28;20433;-59
2022/09/10 20:32:33;;;;;;;8.50;5.10;;;;;;;24.25;53.96;100842.00;5035580;28;20473;-57
2022/09/10 20:34:58;;;;;;;6.87;4.87;;;;;;;24.23;54.17;100838.75;5032051;28;20399;-59
2022/09/10 20:37:23;;;;;;;8.02;5.25;;;;;;;24.20;54.26;100837.38;5033539;28;20386;-59
2022/09/10 20:40:52;;;;;;;8.80;5.80;;;;;;;24.18;54.51;100833.28;5046821;28;20469;-62
2022/09/10 20:43:18;;;;;;;12.73;5.27;;;;;;;24.16;54.52;100835.44;5023977;28;20403;-62
2022/09/10 20:45:45;;;;;;;9.30;4.95;;;;;;;24.15;54.58;100844.66;5024692;28;20764;-61
2022/09/10 20:48:25;;;;;;;10.20;5.15;;;;;;;24.15;54.66;100850.06;5059635;27;2031761;-61
2022/09/10 20:50:55;;;;;;;8.47;5.07;;;;;;;24.10;55.31;100850.81;5116642;28;20465;-62
2022/09/10 20:53:21;;;;;;;7.17;4.53;;;;;;;24.05;54.99;100840.75;5112282;28;20419;-62
2022/09/10 20:55:46;;;;;;;7.13;5.07;;;;;;;24.04;55.00;100847.25;5113441;28;20906;-62
2022/09/10 20:58:13;;;;;;;9.13;4.82;;;;;;;23.98;54.87;100837.44;5124311;28;20440;-62
2022/09/10 21:00:41;;;;;;;7.37;5.10;;;;;;;24.00;54.92;100843.44;5124300;28;20465;-62
2022/09/10 21:05:27;;;;;;;7.45;5.07;;;;;;;23.92;55.04;100856.63;5028487;28;20417;-62
2022/09/10 21:07:53;;;;;;;6.60;4.50;;;;;;;23.92;55.04;100862.84;5023894;28;20817;-62
2022/09/10 21:10:18;;;;;;;6.97;4.40;;;;;;;23.89;54.79;100867.94;5024146;28;20387;-62
2022/09/10 21:12:44;;;;;;;6.97;4.23;;;;;;;23.89;54.75;100876.06;5022733;28;20384;-62
2022/09/10 21:15:42;;;;;;;6.32;4.43;;;;;;;23.83;54.78;100876.00;5028881;28;20928;-62
2022/09/10 21:18:08;;;;;;;5.47;4.25;;;;;;;23.78;54.88;100866.97;5020243;28;20407;-61
2022/09/10 21:20:34;;;;;;;6.85;4.40;;;;;;;23.79;54.61;100865.94;5012412;28;20449;-62
2022/09/10 21:23:00;;;;;;;6.13;3.90;;;;;;;23.76;54.50;100861.00;5004391;28;20787;-63